Terminal Aerodrome Forecast
Issued by NWS Shreveport, LA

Home | Current Version | Previous Version | Text Only | Print | Product List | Glossary On
Versions: 1 2 3 4 5 6 7 8 9 10 11 12 13 14 15 16 17 18 19 20 21 22 23
000
FTUS44 KSHV 221738
TAFLFK
TAF
KLFK 221738Z 2218/2318 06006KT P6SM FEW015 SCT040 BKN100
     FM230000 10005KT P6SM SCT040 SCT250
      TEMPO 2308/2312 BKN015
     FM231200 12006KT P6SM OVC015
     FM231700 15008KT P6SM SCT035=

USA.gov is the U.S. government's official web portal to all federal, state and local government web resources and services.